sensor_id;sensor_type;location;lat;lon;timestamp;temperature;humidity
39453;DHT22;25154;-33.684;151.102;2022-12-18T00:00:41;17.70;99.90
39453;DHT22;25154;-33.684;151.102;2022-12-18T00:05:48;17.80;99.90
39453;DHT22;25154;-33.684;151.102;2022-12-18T00:10:51;17.30;99.90
39453;DHT22;25154;-33.684;151.102;2022-12-18T00:15:53;17.70;99.90
39453;DHT22;25154;-33.684;151.102;2022-12-18T00:20:59;17.70;99.90
39453;DHT22;25154;-33.684;151.102;2022-12-18T00:26:10;17.70;99.90
39453;DHT22;25154;-33.684;151.102;2022-12-18T00:31:20;17.50;99.90
39453;DHT22;25154;-33.684;151.102;2022-12-18T00:36:26;17.00;99.90
39453;DHT22;25154;-33.684;151.102;2022-12-18T00:41:29;16.10;99.90
39453;DHT22;25154;-33.684;151.102;2022-12-18T00:46:50;15.70;99.90
39453;DHT22;25154;-33.684;151.102;2022-12-18T00:51:52;16.30;99.90
39453;DHT22;25154;-33.684;151.102;2022-12-18T00:56:55;17.30;99.90
39453;DHT22;25154;-33.684;151.102;2022-12-18T01:01:58;17.40;99.90
39453;DHT22;25154;-33.684;151.102;2022-12-18T01:07:01;17.20;99.90
39453;DHT22;25154;-33.684;151.102;2022-12-18T01:12:04;17.10;99.90
39453;DHT22;25154;-33.684;151.102;2022-12-18T01:17:06;18.20;99.90
39453;DHT22;25154;-33.684;151.102;2022-12-18T01:22:09;19.70;99.90
39453;DHT22;25154;-33.684;151.102;2022-12-18T01:27:12;19.30;99.90
39453;DHT22;25154;-33.684;151.102;2022-12-18T01:32:15;18.40;99.90
39453;DHT22;25154;-33.684;151.102;2022-12-18T01:37:17;18.60;99.90
39453;DHT22;25154;-33.684;151.102;2022-12-18T01:42:20;19.60;99.90
39453;DHT22;25154;-33.684;151.102;2022-12-18T01:47:43;19.40;99.90
39453;DHT22;25154;-33.684;151.102;2022-12-18T01:53:04;19.40;99.90
39453;DHT22;25154;-33.684;151.102;2022-12-18T01:58:08;19.20;99.90
39453;DHT22;25154;-33.684;151.102;2022-12-18T02:03:11;19.30;99.90
39453;DHT22;25154;-33.684;151.102;2022-12-18T02:18:35;18.10;99.90
39453;DHT22;25154;-33.684;151.102;2022-12-18T02:34:38;16.90;99.90
39453;DHT22;25154;-33.684;151.102;2022-12-18T02:39:43;16.60;99.90
39453;DHT22;25154;-33.684;151.102;2022-12-18T02:44:51;16.70;99.90
39453;DHT22;25154;-33.684;151.102;2022-12-18T03:00:48;17.30;99.90
39453;DHT22;25154;-33.684;151.102;2022-12-18T03:06:04;18.20;99.90
39453;DHT22;25154;-33.684;151.102;2022-12-18T03:11:13;18.90;99.90
39453;DHT22;25154;-33.684;151.102;2022-12-18T03:16:28;19.90;99.90
39453;DHT22;25154;-33.684;151.102;2022-12-18T03:21:43;21.90;99.90
39453;DHT22;25154;-33.684;151.102;2022-12-18T03:26:53;23.10;99.90
39453;DHT22;25154;-33.684;151.102;2022-12-18T03:32:04;23.30;99.90
39453;DHT22;25154;-33.684;151.102;2022-12-18T03:37:07;24.60;99.90
39453;DHT22;25154;-33.684;151.102;2022-12-18T03:52:36;25.30;99.90
39453;DHT22;25154;-33.684;151.102;2022-12-18T03:57:41;26.10;98.20
39453;DHT22;25154;-33.684;151.102;2022-12-18T04:02:55;24.30;99.80
39453;DHT22;25154;-33.684;151.102;2022-12-18T04:07:58;23.10;99.90
39453;DHT22;25154;-33.684;151.102;2022-12-18T04:13:01;25.80;98.20
39453;DHT22;25154;-33.684;151.102;2022-12-18T04:18:03;25.40;97.60
39453;DHT22;25154;-33.684;151.102;2022-12-18T04:23:06;26.40;95.90
39453;DHT22;25154;-33.684;151.102;2022-12-18T04:28:08;27.80;94.40
39453;DHT22;25154;-33.684;151.102;2022-12-18T04:33:12;28.20;92.30
39453;DHT22;25154;-33.684;151.102;2022-12-18T04:38:15;27.10;92.20
39453;DHT22;25154;-33.684;151.102;2022-12-18T04:43:19;27.80;92.30
39453;DHT22;25154;-33.684;151.102;2022-12-18T04:48:22;28.00;93.00
39453;DHT22;25154;-33.684;151.102;2022-12-18T04:53:25;28.80;91.50
39453;DHT22;25154;-33.684;151.102;2022-12-18T04:58:28;28.40;91.90
39453;DHT22;25154;-33.684;151.102;2022-12-18T05:03:31;29.10;91.40
39453;DHT22;25154;-33.684;151.102;2022-12-18T05:08:34;29.50;90.70
39453;DHT22;25154;-33.684;151.102;2022-12-18T05:13:37;28.40;90.00
39453;DHT22;25154;-33.684;151.102;2022-12-18T05:18:40;27.80;91.60
39453;DHT22;25154;-33.684;151.102;2022-12-18T05:23:43;26.40;92.20
39453;DHT22;25154;-33.684;151.102;2022-12-18T05:28:46;26.30;91.50
39453;DHT22;25154;-33.684;151.102;2022-12-18T05:33:49;28.00;91.80
39453;DHT22;25154;-33.684;151.102;2022-12-18T05:38:51;28.10;91.50
39453;DHT22;25154;-33.684;151.102;2022-12-18T05:43:56;28.70;90.40
39453;DHT22;25154;-33.684;151.102;2022-12-18T05:49:01;28.70;90.60
39453;DHT22;25154;-33.684;151.102;2022-12-18T05:54:04;29.20;89.90
39453;DHT22;25154;-33.684;151.102;2022-12-18T05:59:07;29.10;89.70
39453;DHT22;25154;-33.684;151.102;2022-12-18T06:04:09;29.30;86.70
39453;DHT22;25154;-33.684;151.102;2022-12-18T06:09:12;29.10;88.70
39453;DHT22;25154;-33.684;151.102;2022-12-18T06:14:15;28.20;88.50
39453;DHT22;25154;-33.684;151.102;2022-12-18T06:19:19;29.40;86.20
39453;DHT22;25154;-33.684;151.102;2022-12-18T06:24:23;28.10;85.60
39453;DHT22;25154;-33.684;151.102;2022-12-18T06:29:25;27.30;87.30
39453;DHT22;25154;-33.684;151.102;2022-12-18T06:34:28;28.00;90.00
39453;DHT22;25154;-33.684;151.102;2022-12-18T06:39:31;27.80;87.80
39453;DHT22;25154;-33.684;151.102;2022-12-18T06:44:34;27.90;89.80
39453;DHT22;25154;-33.684;151.102;2022-12-18T06:49:36;28.00;89.80
39453;DHT22;25154;-33.684;151.102;2022-12-18T06:54:40;28.20;88.00
39453;DHT22;25154;-33.684;151.102;2022-12-18T06:59:44;27.60;87.70
39453;DHT22;25154;-33.684;151.102;2022-12-18T07:04:48;26.90;89.90
39453;DHT22;25154;-33.684;151.102;2022-12-18T07:09:52;27.00;89.50
39453;DHT22;25154;-33.684;151.102;2022-12-18T07:14:55;26.20;86.40
39453;DHT22;25154;-33.684;151.102;2022-12-18T07:19:57;26.70;89.90
39453;DHT22;25154;-33.684;151.102;2022-12-18T07:24:59;25.60;87.70
39453;DHT22;25154;-33.684;151.102;2022-12-18T07:30:05;26.10;89.20
39453;DHT22;25154;-33.684;151.102;2022-12-18T07:35:08;24.70;89.80
39453;DHT22;25154;-33.684;151.102;2022-12-18T07:40:12;24.20;90.80
39453;DHT22;25154;-33.684;151.102;2022-12-18T07:45:15;24.40;91.20
39453;DHT22;25154;-33.684;151.102;2022-12-18T07:50:18;25.00;91.40
39453;DHT22;25154;-33.684;151.102;2022-12-18T07:55:20;24.70;91.30
39453;DHT22;25154;-33.684;151.102;2022-12-18T08:00:23;25.10;91.50
39453;DHT22;25154;-33.684;151.102;2022-12-18T08:05:26;23.20;91.20
39453;DHT22;25154;-33.684;151.102;2022-12-18T08:10:29;24.90;92.40
39453;DHT22;25154;-33.684;151.102;2022-12-18T08:15:32;22.80;93.20
39453;DHT22;25154;-33.684;151.102;2022-12-18T08:20:35;21.80;95.50
39453;DHT22;25154;-33.684;151.102;2022-12-18T08:25:37;21.00;96.80
39453;DHT22;25154;-33.684;151.102;2022-12-18T08:30:42;19.90;99.90
39453;DHT22;25154;-33.684;151.102;2022-12-18T08:35:44;18.70;99.90
39453;DHT22;25154;-33.684;151.102;2022-12-18T08:40:46;18.30;99.90
39453;DHT22;25154;-33.684;151.102;2022-12-18T08:45:52;17.90;99.90
39453;DHT22;25154;-33.684;151.102;2022-12-18T08:50:58;17.50;99.90
39453;DHT22;25154;-33.684;151.102;2022-12-18T08:56:01;17.10;99.90
39453;DHT22;25154;-33.684;151.102;2022-12-18T09:01:06;16.70;99.90
39453;DHT22;25154;-33.684;151.102;2022-12-18T09:06:22;16.40;99.90
39453;DHT22;25154;-33.684;151.102;2022-12-18T09:11:29;15.20;99.90
39453;DHT22;25154;-33.684;151.102;2022-12-18T09:16:42;16.00;99.90
39453;DHT22;25154;-33.684;151.102;2022-12-18T09:21:48;15.80;99.90
39453;DHT22;25154;-33.684;151.102;2022-12-18T09:26:55;15.80;99.90
39453;DHT22;25154;-33.684;151.102;2022-12-18T09:32:00;15.50;99.90
39453;DHT22;25154;-33.684;151.102;2022-12-18T09:37:03;15.50;99.90
39453;DHT22;25154;-33.684;151.102;2022-12-18T09:42:05;15.40;99.90
39453;DHT22;25154;-33.684;151.102;2022-12-18T09:47:18;15.30;99.90
39453;DHT22;25154;-33.684;151.102;2022-12-18T09:52:34;15.10;99.90
39453;DHT22;25154;-33.684;151.102;2022-12-18T09:57:57;15.00;99.90
39453;DHT22;25154;-33.684;151.102;2022-12-18T10:03:14;14.90;99.90
39453;DHT22;25154;-33.684;151.102;2022-12-18T10:08:46;14.80;99.90
39453;DHT22;25154;-33.684;151.102;2022-12-18T10:29:50;14.40;99.90
39453;DHT22;25154;-33.684;151.102;2022-12-18T10:34:56;14.20;99.90
39453;DHT22;25154;-33.684;151.102;2022-12-18T10:40:15;14.20;99.90
39453;DHT22;25154;-33.684;151.102;2022-12-18T10:45:21;14.10;99.90
39453;DHT22;25154;-33.684;151.102;2022-12-18T10:50:32;14.00;99.90
39453;DHT22;25154;-33.684;151.102;2022-12-18T10:55:38;14.10;99.90
39453;DHT22;25154;-33.684;151.102;2022-12-18T11:00:42;14.20;99.90
39453;DHT22;25154;-33.684;151.102;2022-12-18T11:05:45;15.70;99.90
39453;DHT22;25154;-33.684;151.102;2022-12-18T11:10:48;14.40;99.90
39453;DHT22;25154;-33.684;151.102;2022-12-18T11:15:51;14.50;99.90
39453;DHT22;25154;-33.684;151.102;2022-12-18T11:21:05;14.30;99.90
39453;DHT22;25154;-33.684;151.102;2022-12-18T11:26:08;14.10;99.90
39453;DHT22;25154;-33.684;151.102;2022-12-18T11:36:20;13.60;99.90
39453;DHT22;25154;-33.684;151.102;2022-12-18T11:41:32;13.30;99.90
39453;DHT22;25154;-33.684;151.102;2022-12-18T11:52:38;13.30;99.90
39453;DHT22;25154;-33.684;151.102;2022-12-18T11:57:55;13.30;99.90
39453;DHT22;25154;-33.684;151.102;2022-12-18T12:29:41;13.10;99.90
39453;DHT22;25154;-33.684;151.102;2022-12-18T12:40:17;13.20;99.90
39453;DHT22;25154;-33.684;151.102;2022-12-18T12:45:51;13.30;99.90
39453;DHT22;25154;-33.684;151.102;2022-12-18T12:50:51;13.30;99.90
39453;DHT22;25154;-33.684;151.102;2022-12-18T12:55:54;13.20;99.90
39453;DHT22;25154;-33.684;151.102;2022-12-18T13:01:01;13.20;99.90
39453;DHT22;25154;-33.684;151.102;2022-12-18T13:06:24;13.20;99.90
39453;DHT22;25154;-33.684;151.102;2022-12-18T13:17:27;13.10;99.90
39453;DHT22;25154;-33.684;151.102;2022-12-18T13:22:44;13.10;99.90
39453;DHT22;25154;-33.684;151.102;2022-12-18T13:28:15;13.10;99.90
39453;DHT22;25154;-33.684;151.102;2022-12-18T13:49:03;13.20;99.90
39453;DHT22;25154;-33.684;151.102;2022-12-18T13:54:32;13.30;99.90
39453;DHT22;25154;-33.684;151.102;2022-12-18T13:59:37;13.30;99.90
39453;DHT22;25154;-33.684;151.102;2022-12-18T14:04:40;13.30;99.90
39453;DHT22;25154;-33.684;151.102;2022-12-18T14:10:01;13.30;99.90
39453;DHT22;25154;-33.684;151.102;2022-12-18T14:15:09;13.40;99.90
39453;DHT22;25154;-33.684;151.102;2022-12-18T14:20:19;13.40;99.90
39453;DHT22;25154;-33.684;151.102;2022-12-18T14:25:27;13.30;99.90
39453;DHT22;25154;-33.684;151.102;2022-12-18T14:30:30;13.40;99.90
39453;DHT22;25154;-33.684;151.102;2022-12-18T14:35:35;13.30;99.90
39453;DHT22;25154;-33.684;151.102;2022-12-18T14:40:39;13.30;99.90
39453;DHT22;25154;-33.684;151.102;2022-12-18T14:45:45;13.30;99.90
39453;DHT22;25154;-33.684;151.102;2022-12-18T14:51:02;13.40;99.90
39453;DHT22;25154;-33.684;151.102;2022-12-18T15:01:25;13.30;99.90
39453;DHT22;25154;-33.684;151.102;2022-12-18T15:06:33;13.10;99.90
39453;DHT22;25154;-33.684;151.102;2022-12-18T15:11:44;13.00;99.90
39453;DHT22;25154;-33.684;151.102;2022-12-18T15:16:53;12.90;99.90
39453;DHT22;25154;-33.684;151.102;2022-12-18T15:21:56;12.80;99.90
39453;DHT22;25154;-33.684;151.102;2022-12-18T15:26:59;12.80;99.90
39453;DHT22;25154;-33.684;151.102;2022-12-18T15:32:05;12.90;99.90
39453;DHT22;25154;-33.684;151.102;2022-12-18T15:37:08;12.90;99.90
39453;DHT22;25154;-33.684;151.102;2022-12-18T15:42:10;12.70;99.90
39453;DHT22;25154;-33.684;151.102;2022-12-18T15:47:31;12.70;99.90
39453;DHT22;25154;-33.684;151.102;2022-12-18T15:52:40;12.60;99.90
39453;DHT22;25154;-33.684;151.102;2022-12-18T15:57:43;12.70;99.90
39453;DHT22;25154;-33.684;151.102;2022-12-18T16:02:46;12.80;99.90
39453;DHT22;25154;-33.684;151.102;2022-12-18T16:07:48;12.90;99.90
39453;DHT22;25154;-33.684;151.102;2022-12-18T16:12:50;12.90;99.90
39453;DHT22;25154;-33.684;151.102;2022-12-18T16:17:53;12.90;99.90
39453;DHT22;25154;-33.684;151.102;2022-12-18T16:22:55;12.90;99.90
39453;DHT22;25154;-33.684;151.102;2022-12-18T16:27:58;12.90;99.90
39453;DHT22;25154;-33.684;151.102;2022-12-18T16:33:00;12.90;99.90
39453;DHT22;25154;-33.684;151.102;2022-12-18T16:38:02;12.90;99.90
39453;DHT22;25154;-33.684;151.102;2022-12-18T16:43:05;12.80;99.90
39453;DHT22;25154;-33.684;151.102;2022-12-18T16:48:07;12.80;99.90
39453;DHT22;25154;-33.684;151.102;2022-12-18T16:53:09;14.40;99.90
39453;DHT22;25154;-33.684;151.102;2022-12-18T16:58:12;12.80;99.90
39453;DHT22;25154;-33.684;151.102;2022-12-18T17:03:14;12.80;99.90
39453;DHT22;25154;-33.684;151.102;2022-12-18T17:08:16;12.70;99.90
39453;DHT22;25154;-33.684;151.102;2022-12-18T17:13:19;12.80;99.90
39453;DHT22;25154;-33.684;151.102;2022-12-18T17:18:21;12.70;99.90
39453;DHT22;25154;-33.684;151.102;2022-12-18T17:23:23;12.80;99.90
39453;DHT22;25154;-33.684;151.102;2022-12-18T17:28:27;12.80;99.90
39453;DHT22;25154;-33.684;151.102;2022-12-18T17:33:29;12.90;99.90
39453;DHT22;25154;-33.684;151.102;2022-12-18T17:38:32;13.60;99.90
39453;DHT22;25154;-33.684;151.102;2022-12-18T17:43:35;12.70;99.90
39453;DHT22;25154;-33.684;151.102;2022-12-18T17:48:40;12.60;99.90
39453;DHT22;25154;-33.684;151.102;2022-12-18T17:53:42;12.40;99.90
39453;DHT22;25154;-33.684;151.102;2022-12-18T17:58:45;12.20;99.90
39453;DHT22;25154;-33.684;151.102;2022-12-18T18:03:48;12.20;99.90
39453;DHT22;25154;-33.684;151.102;2022-12-18T18:08:52;12.20;99.90
39453;DHT22;25154;-33.684;151.102;2022-12-18T18:13:54;12.30;99.90
39453;DHT22;25154;-33.684;151.102;2022-12-18T18:19:06;12.30;99.90
39453;DHT22;25154;-33.684;151.102;2022-12-18T18:24:11;12.30;99.90
39453;DHT22;25154;-33.684;151.102;2022-12-18T18:29:19;12.40;99.90
39453;DHT22;25154;-33.684;151.102;2022-12-18T18:34:27;12.40;99.90
39453;DHT22;25154;-33.684;151.102;2022-12-18T18:39:29;12.40;99.90
39453;DHT22;25154;-33.684;151.102;2022-12-18T18:44:32;12.40;99.90
39453;DHT22;25154;-33.684;151.102;2022-12-18T18:49:35;12.20;99.90
39453;DHT22;25154;-33.684;151.102;2022-12-18T18:54:38;12.30;99.90
39453;DHT22;25154;-33.684;151.102;2022-12-18T18:59:40;12.40;99.90
39453;DHT22;25154;-33.684;151.102;2022-12-18T19:04:43;12.40;99.90
39453;DHT22;25154;-33.684;151.102;2022-12-18T19:09:45;12.50;99.90
39453;DHT22;25154;-33.684;151.102;2022-12-18T19:14:53;12.50;99.90
39453;DHT22;25154;-33.684;151.102;2022-12-18T19:19:56;12.40;99.90
39453;DHT22;25154;-33.684;151.102;2022-12-18T19:24:58;12.40;99.90
39453;DHT22;25154;-33.684;151.102;2022-12-18T19:30:01;12.40;99.90
39453;DHT22;25154;-33.684;151.102;2022-12-18T19:35:03;12.60;99.90
39453;DHT22;25154;-33.684;151.102;2022-12-18T19:40:06;12.70;99.90
39453;DHT22;25154;-33.684;151.102;2022-12-18T19:45:09;12.90;99.90
39453;DHT22;25154;-33.684;151.102;2022-12-18T19:50:11;13.00;99.90
39453;DHT22;25154;-33.684;151.102;2022-12-18T19:55:14;13.00;99.90
39453;DHT22;25154;-33.684;151.102;2022-12-18T20:00:16;13.00;99.90
39453;DHT22;25154;-33.684;151.102;2022-12-18T20:05:19;13.10;99.90
39453;DHT22;25154;-33.684;151.102;2022-12-18T20:10:25;13.20;99.90
39453;DHT22;25154;-33.684;151.102;2022-12-18T20:15:27;13.30;99.90
39453;DHT22;25154;-33.684;151.102;2022-12-18T20:20:30;13.60;99.90
39453;DHT22;25154;-33.684;151.102;2022-12-18T20:25:32;13.80;99.90
39453;DHT22;25154;-33.684;151.102;2022-12-18T20:30:36;14.00;99.90
39453;DHT22;25154;-33.684;151.102;2022-12-18T20:35:38;14.10;99.90
39453;DHT22;25154;-33.684;151.102;2022-12-18T20:40:41;14.10;99.90
39453;DHT22;25154;-33.684;151.102;2022-12-18T20:45:44;14.10;99.90
39453;DHT22;25154;-33.684;151.102;2022-12-18T20:50:59;14.00;99.90
39453;DHT22;25154;-33.684;151.102;2022-12-18T20:56:17;14.10;99.90
39453;DHT22;25154;-33.684;151.102;2022-12-18T21:01:21;14.20;99.90
39453;DHT22;25154;-33.684;151.102;2022-12-18T21:06:24;14.50;99.90
39453;DHT22;25154;-33.684;151.102;2022-12-18T21:11:29;14.60;99.90
39453;DHT22;25154;-33.684;151.102;2022-12-18T21:16:54;14.50;99.90
39453;DHT22;25154;-33.684;151.102;2022-12-18T21:21:57;14.60;99.90
39453;DHT22;25154;-33.684;151.102;2022-12-18T21:26:59;14.90;99.90
39453;DHT22;25154;-33.684;151.102;2022-12-18T21:32:03;15.10;99.90
39453;DHT22;25154;-33.684;151.102;2022-12-18T21:37:05;15.40;99.90
39453;DHT22;25154;-33.684;151.102;2022-12-18T21:42:12;15.40;99.90
39453;DHT22;25154;-33.684;151.102;2022-12-18T21:47:42;15.30;99.90
39453;DHT22;25154;-33.684;151.102;2022-12-18T21:52:45;15.50;99.90
39453;DHT22;25154;-33.684;151.102;2022-12-18T21:57:47;15.90;99.90
39453;DHT22;25154;-33.684;151.102;2022-12-18T22:02:51;16.20;99.90
39453;DHT22;25154;-33.684;151.102;2022-12-18T22:07:57;16.40;99.90
39453;DHT22;25154;-33.684;151.102;2022-12-18T22:13:04;16.30;99.90
39453;DHT22;25154;-33.684;151.102;2022-12-18T22:18:07;16.10;99.90
39453;DHT22;25154;-33.684;151.102;2022-12-18T22:23:10;16.10;99.90
39453;DHT22;25154;-33.684;151.102;2022-12-18T22:28:16;16.30;99.90
39453;DHT22;25154;-33.684;151.102;2022-12-18T22:33:36;17.20;99.90
39453;DHT22;25154;-33.684;151.102;2022-12-18T22:38:39;16.90;99.90
39453;DHT22;25154;-33.684;151.102;2022-12-18T22:43:41;17.40;99.90
39453;DHT22;25154;-33.684;151.102;2022-12-18T22:48:45;17.60;99.90
39453;DHT22;25154;-33.684;151.102;2022-12-18T22:53:48;17.40;99.90
39453;DHT22;25154;-33.684;151.102;2022-12-18T22:58:51;17.10;99.90
39453;DHT22;25154;-33.684;151.102;2022-12-18T23:03:54;17.40;99.90
39453;DHT22;25154;-33.684;151.102;2022-12-18T23:09:09;17.90;99.90
39453;DHT22;25154;-33.684;151.102;2022-12-18T23:14:18;18.40;99.90
39453;DHT22;25154;-33.684;151.102;2022-12-18T23:19:23;18.90;99.90
39453;DHT22;25154;-33.684;151.102;2022-12-18T23:24:26;19.10;99.90
39453;DHT22;25154;-33.684;151.102;2022-12-18T23:29:29;19.20;99.90
39453;DHT22;25154;-33.684;151.102;2022-12-18T23:34:34;19.20;99.90
39453;DHT22;25154;-33.684;151.102;2022-12-18T23:39:36;19.30;99.90
39453;DHT22;25154;-33.684;151.102;2022-12-18T23:44:39;18.70;99.90
39453;DHT22;25154;-33.684;151.102;2022-12-18T23:49:42;19.20;99.90
39453;DHT22;25154;-33.684;151.102;2022-12-18T23:54:45;19.30;99.90
39453;DHT22;25154;-33.684;151.102;2022-12-18T23:59:48;19.40;99.90
